Time;durP1;ratioP1;P1;durP2;ratioP2;P2;SDS_P1;SDS_P2;PMS_P1;PMS_P2;Temp;Humidity;BMP_temperature;BMP_pressure;BME280_temperature;BME280_humidity;BME280_pressure;Samples;Min_cycle;Max_cycle;Signal;HPM_P1;HPM_P2
2023/12/12 14:50:39;;;;;;;8.13;2.15;;;20.60;53.50;;;;;;4992516;28;20247;-55
2023/12/12 14:53:07;;;;;;;8.48;2.20;;;20.70;53.20;;;;;;4999825;28;20573;-54
2023/12/12 14:55:34;;;;;;;7.57;2.17;;;20.80;53.10;;;;;;4979944;28;20212;-54
2023/12/12 14:58:01;;;;;;;9.07;2.30;;;20.90;53.10;;;;;;4986984;28;20228;-56
2023/12/12 15:00:28;;;;;;;10.02;2.70;;;21.00;52.90;;;;;;4985685;28;20194;-56
2023/12/12 15:02:55;;;;;;;9.35;2.28;;;21.10;52.70;;;;;;4986592;28;20293;-57
2023/12/12 15:05:23;;;;;;;9.38;1.83;;;21.10;52.30;;;;;;4982485;28;20654;-56
2023/12/12 15:07:51;;;;;;;9.35;2.30;;;21.20;52.10;;;;;;4981903;28;20675;-55
2023/12/12 15:10:27;;;;;;;11.30;2.67;;;21.20;51.90;;;;;;5109216;27;20636;-58
2023/12/12 15:12:54;;;;;;;15.63;2.33;;;21.30;52.00;;;;;;5109971;28;20671;-56
2023/12/12 15:15:21;;;;;;;8.60;2.03;;;21.30;52.00;;;;;;5099017;28;20617;-59
2023/12/12 15:17:48;;;;;;;12.50;2.00;;;21.30;52.00;;;;;;5093146;28;20282;-59
2023/12/12 15:20:16;;;;;;;18.95;2.20;;;21.30;52.00;;;;;;5101559;28;20308;-58
2023/12/12 15:22:43;;;;;;;14.38;2.20;;;21.20;51.90;;;;;;5098356;28;20198;-59
2023/12/12 15:25:10;;;;;;;18.65;2.72;;;21.20;51.90;;;;;;5100644;28;20312;-58
2023/12/12 15:27:39;;;;;;;18.75;2.33;;;21.20;52.00;;;;;;5089049;28;20194;-55
2023/12/12 15:30:07;;;;;;;6.93;2.08;;;21.10;52.00;;;;;;5100176;28;20235;-57
2023/12/12 15:32:34;;;;;;;19.13;2.45;;;21.00;52.10;;;;;;5100687;28;20276;-55
2023/12/12 15:35:01;;;;;;;7.78;1.95;;;21.00;52.10;;;;;;5100782;28;20801;-54
2023/12/12 15:37:28;;;;;;;8.00;1.67;;;20.90;52.00;;;;;;5098143;28;20213;-56
2023/12/12 15:40:00;;;;;;;7.15;2.00;;;20.80;51.90;;;;;;5100688;28;20226;-56
2023/12/12 15:42:27;;;;;;;8.55;2.10;;;20.80;52.10;;;;;;5100268;28;20210;-57
2023/12/12 15:44:56;;;;;;;7.45;2.08;;;20.70;52.10;;;;;;5099221;28;20270;-56
2023/12/12 15:47:23;;;;;;;9.68;2.33;;;20.60;52.10;;;;;;5098235;28;20747;-56
2023/12/12 15:49:50;;;;;;;13.68;2.10;;;20.60;52.30;;;;;;5097705;28;20321;-57
2023/12/12 15:52:17;;;;;;;8.95;1.98;;;20.60;52.40;;;;;;5093996;28;20282;-57
2023/12/12 15:54:44;;;;;;;7.38;2.58;;;20.50;52.40;;;;;;5096369;28;20274;-60
2023/12/12 15:57:11;;;;;;;8.07;2.15;;;20.50;52.40;;;;;;5097262;28;20196;-59
2023/12/12 15:59:38;;;;;;;8.77;2.28;;;20.50;52.40;;;;;;5086800;28;20225;-59
2023/12/12 16:02:07;;;;;;;5.43;2.00;;;20.50;52.40;;;;;;5103463;28;20193;-59
2023/12/12 16:04:34;;;;;;;10.48;2.30;;;20.50;52.50;;;;;;5095491;28;20221;-56
2023/12/12 16:07:02;;;;;;;8.10;1.75;;;20.40;52.40;;;;;;5104277;28;20250;-59
2023/12/12 16:09:30;;;;;;;10.68;2.42;;;20.40;52.60;;;;;;5103335;28;20233;-56
2023/12/12 16:11:57;;;;;;;13.25;2.40;;;20.30;52.50;;;;;;5102158;28;20279;-58
2023/12/12 16:14:24;;;;;;;14.05;1.95;;;20.30;52.70;;;;;;5110107;28;20259;-55
2023/12/12 16:16:51;;;;;;;6.15;1.45;;;20.30;52.70;;;;;;5117191;28;20188;-58
2023/12/12 16:19:19;;;;;;;5.68;2.00;;;20.30;52.90;;;;;;5114310;28;20315;-58
2023/12/12 16:21:46;;;;;;;9.57;2.70;;;20.30;52.80;;;;;;5097448;28;20633;-58
2023/12/12 16:24:14;;;;;;;7.93;1.90;;;20.30;52.70;;;;;;5090115;28;20221;-59
2023/12/12 16:26:41;;;;;;;5.57;1.63;;;20.30;52.70;;;;;;5087974;28;20282;-58
2023/12/12 16:29:08;;;;;;;9.07;2.25;;;20.30;52.80;;;;;;5097134;28;20234;-59
2023/12/12 16:31:35;;;;;;;6.47;1.88;;;20.40;52.90;;;;;;5087800;28;20201;-58
2023/12/12 16:34:04;;;;;;;3.97;1.50;;;20.40;53.00;;;;;;5104039;28;20224;-59
2023/12/12 16:36:32;;;;;;;6.80;1.98;;;20.40;52.90;;;;;;5090116;28;20215;-56
2023/12/12 16:39:00;;;;;;;8.07;1.80;;;20.50;52.90;;;;;;5102007;28;20316;-55
2023/12/12 16:41:27;;;;;;;6.40;1.85;;;20.50;52.90;;;;;;5094631;28;20276;-56
2023/12/12 16:43:55;;;;;;;8.63;1.80;;;20.50;52.90;;;;;;5103928;28;20735;-54
2023/12/12 16:46:22;;;;;;;7.35;1.90;;;20.50;52.90;;;;;;5091111;28;20190;-58
2023/12/12 16:48:49;;;;;;;7.85;1.90;;;20.50;52.90;;;;;;5109829;28;20311;-59
2023/12/12 16:51:16;;;;;;;6.78;1.95;;;20.50;53.50;;;;;;5093813;28;20313;-58
2023/12/12 16:53:44;;;;;;;7.53;1.90;;;20.50;52.90;;;;;;5093834;28;20218;-59
2023/12/12 16:56:12;;;;;;;7.55;2.08;;;20.50;53.50;;;;;;5090421;28;20281;-56
2023/12/12 16:58:40;;;;;;;7.80;1.67;;;20.50;52.90;;;;;;5090979;28;20252;-57
2023/12/12 17:01:08;;;;;;;6.20;2.00;;;20.50;52.90;;;;;;5102359;28;20205;-53
2023/12/12 17:03:35;;;;;;;11.32;2.20;;;20.50;52.90;;;;;;5083083;28;20222;-56
2023/12/12 17:06:03;;;;;;;8.38;1.73;;;20.50;53.20;;;;;;5073909;28;20533;-54
2023/12/12 17:08:30;;;;;;;8.45;1.98;;;20.50;53.20;;;;;;5090863;28;20229;-55
2023/12/12 17:10:59;;;;;;;10.30;2.08;;;20.60;53.20;;;;;;5086640;28;20213;-54
2023/12/12 17:13:26;;;;;;;8.55;1.80;;;20.70;53.10;;;;;;5092098;28;20655;-56
2023/12/12 17:15:56;;;;;;;6.22;1.95;;;20.70;53.00;;;;;;5075240;28;20252;-55
2023/12/12 17:18:23;;;;;;;8.30;2.00;;;20.80;52.90;;;;;;5075637;28;20248;-59
2023/12/12 17:20:50;;;;;;;10.95;2.45;;;20.80;52.70;;;;;;5092140;28;20229;-58
2023/12/12 17:23:18;;;;;;;10.10;1.80;;;20.80;52.60;;;;;;5091635;28;20190;-57
2023/12/12 17:25:45;;;;;;;8.98;2.30;;;20.90;53.30;;;;;;5090782;28;20710;-59
2023/12/12 17:28:13;;;;;;;7.70;1.90;;;20.90;52.60;;;;;;5092602;28;20192;-59
2023/12/12 17:30:40;;;;;;;7.97;2.00;;;20.90;52.60;;;;;;5092560;28;20300;-59
2023/12/12 17:33:07;;;;;;;6.57;2.00;;;20.90;53.20;;;;;;5091163;28;20214;-59
2023/12/12 17:35:34;;;;;;;7.85;2.10;;;20.80;52.60;;;;;;5091924;28;20230;-59
2023/12/12 17:38:02;;;;;;;12.52;2.10;;;20.80;52.70;;;;;;5092741;28;20187;-55
2023/12/12 17:40:30;;;;;;;7.25;2.42;;;20.80;52.80;;;;;;5084354;28;20222;-56
2023/12/12 17:42:57;;;;;;;7.32;1.80;;;20.80;52.90;;;;;;5080597;28;20201;-54
2023/12/12 17:45:25;;;;;;;6.85;2.10;;;20.80;53.50;;;;;;5078829;28;20232;-56
2023/12/12 17:47:52;;;;;;;6.72;1.73;;;20.90;52.80;;;;;;5076934;28;20198;-56
2023/12/12 17:50:20;;;;;;;15.32;2.05;;;21.00;52.70;;;;;;5078675;28;20240;-58
2023/12/12 17:52:47;;;;;;;10.40;1.75;;;21.10;52.70;;;;;;5098838;28;20197;-56
2023/12/12 17:55:14;;;;;;;8.77;1.63;;;21.20;52.30;;;;;;5080057;28;20260;-56
2023/12/12 17:57:41;;;;;;;8.02;2.08;;;21.20;51.90;;;;;;5081779;28;20201;-58
2023/12/12 18:00:11;;;;;;;8.00;1.88;;;21.30;52.00;;;;;;5092340;28;20244;-57
2023/12/12 18:02:42;;;;;;;7.85;1.98;;;21.30;52.00;;;;;;5090260;28;20190;-58
2023/12/12 18:05:14;;;;;;;7.13;1.92;;;21.20;52.50;;;;;;5087876;28;20407;-58
2023/12/12 18:07:41;;;;;;;12.30;2.42;;;21.20;51.90;;;;;;5083663;28;20194;-61
2023/12/12 18:10:08;;;;;;;7.13;1.90;;;21.20;51.90;;;;;;5088425;28;20737;-60
2023/12/12 18:12:35;;;;;;;10.75;2.05;;;21.10;51.90;;;;;;5095485;28;20193;-60
2023/12/12 18:15:02;;;;;;;11.35;1.90;;;21.00;52.10;;;;;;5111860;28;20348;-59
2023/12/12 18:17:29;;;;;;;11.48;2.35;;;21.00;52.40;;;;;;5100645;28;20196;-60
2023/12/12 18:19:57;;;;;;;10.63;2.28;;;21.00;52.70;;;;;;5090565;28;20301;-60
2023/12/12 18:22:24;;;;;;;9.65;2.20;;;21.10;53.20;;;;;;5089427;28;20295;-61
2023/12/12 18:24:51;;;;;;;9.05;1.85;;;21.10;53.20;;;;;;5089479;28;20222;-60
2023/12/12 18:27:20;;;;;;;7.50;2.05;;;21.20;53.10;;;;;;5091213;28;20276;-60
2023/12/12 18:29:49;;;;;;;9.50;2.25;;;21.20;53.10;;;;;;5089870;28;20659;-60
2023/12/12 18:32:19;;;;;;;5.85;2.00;;;21.20;53.00;;;;;;5090740;28;20651;-60
2023/12/12 18:34:47;;;;;;;8.15;1.92;;;21.20;52.90;;;;;;5090411;28;20218;-60
2023/12/12 18:37:19;;;;;;;7.22;2.08;;;21.20;52.90;;;;;;5038995;28;20197;-60
2023/12/12 18:39:48;;;;;;;11.63;2.00;;;21.20;53.20;;;;;;5090121;28;20221;-59
2023/12/12 18:42:14;;;;;;;12.90;2.38;;;21.30;53.50;;;;;;5088415;28;20205;-58
2023/12/12 18:44:42;;;;;;;12.00;2.10;;;21.30;53.50;;;;;;5091133;28;20221;-58
2023/12/12 18:47:11;;;;;;;12.35;2.10;;;21.40;53.50;;;;;;5106190;28;20623;-60
2023/12/12 18:49:41;;;;;;;7.45;2.08;;;21.50;53.50;;;;;;5094410;28;20308;-60
2023/12/12 18:52:11;;;;;;;8.57;1.77;;;21.60;53.40;;;;;;5091048;28;20182;-57
2023/12/12 18:54:43;;;;;;;7.10;2.05;;;21.70;53.30;;;;;;5088126;28;20301;-58
2023/12/12 18:57:14;;;;;;;8.38;2.22;;;21.80;53.20;;;;;;5089402;28;20218;-60
2023/12/12 18:59:42;;;;;;;10.80;1.98;;;21.80;53.10;;;;;;5091451;28;20217;-60
2023/12/12 19:02:09;;;;;;;10.18;2.10;;;21.80;53.00;;;;;;5090230;28;21202;-60
2023/12/12 19:04:36;;;;;;;12.00;2.08;;;21.80;53.00;;;;;;5091120;28;20218;-58
2023/12/12 19:07:03;;;;;;;11.43;1.90;;;21.70;52.90;;;;;;5091003;28;20204;-60
2023/12/12 19:09:32;;;;;;;13.82;2.28;;;21.80;52.80;;;;;;5089140;28;20602;-58
2023/12/12 19:12:03;;;;;;;8.48;2.10;;;21.70;52.50;;;;;;5088443;28;20266;-60
2023/12/12 19:14:31;;;;;;;13.98;2.63;;;21.60;52.30;;;;;;5090391;28;20229;-60
2023/12/12 19:16:59;;;;;;;6.18;1.98;;;21.60;52.20;;;;;;5090323;28;20204;-60
2023/12/12 19:19:27;;;;;;;7.85;2.47;;;21.50;52.40;;;;;;5072703;28;20782;-60
2023/12/12 19:21:57;;;;;;;7.70;3.83;;;21.40;52.40;;;;;;5089878;28;20193;-57
2023/12/12 19:24:34;;;;;;;17.20;5.82;;;21.30;52.30;;;;;;5068877;28;20295;-56
2023/12/12 19:27:03;;;;;;;9.55;5.22;;;21.20;52.20;;;;;;5074068;28;20204;-61
2023/12/12 19:29:36;;;;;;;14.65;6.68;;;21.20;52.20;;;;;;5091289;28;20769;-60
2023/12/12 19:32:07;;;;;;;10.90;8.60;;;21.20;52.30;;;;;;5090369;28;20663;-60
2023/12/12 19:34:34;;;;;;;15.52;12.45;;;21.10;52.40;;;;;;5091478;28;20459;-58
2023/12/12 19:37:03;;;;;;;16.63;14.65;;;21.10;52.80;;;;;;5090796;28;20623;-59
2023/12/12 19:39:33;;;;;;;23.40;15.70;;;21.10;52.60;;;;;;5090268;28;20300;-57
2023/12/12 19:42:07;;;;;;;23.23;17.83;;;21.10;52.90;;;;;;5090185;28;20277;-57
2023/12/12 19:44:40;;;;;;;31.48;22.55;;;21.00;52.90;;;;;;5055774;28;20687;-57
2023/12/12 19:47:11;;;;;;;42.88;25.63;;;21.00;52.70;;;;;;5090697;28;20191;-60
2023/12/12 19:49:50;;;;;;;40.53;23.67;;;20.90;52.90;;;;;;5071158;28;20614;-60
2023/12/12 19:52:18;;;;;;;42.70;23.25;;;20.90;52.90;;;;;;5074579;28;20243;-62
2023/12/12 19:54:45;;;;;;;54.70;22.77;;;20.90;53.20;;;;;;5090161;28;20233;-60
2023/12/12 19:57:19;;;;;;;49.38;22.67;;;20.90;53.20;;;;;;5093618;28;20269;-54
2023/12/12 19:59:51;;;;;;;44.90;20.60;;;20.90;53.30;;;;;;5094761;28;20213;-58
2023/12/12 20:02:18;;;;;;;46.33;20.15;;;20.90;53.40;;;;;;5058184;28;20194;-57
2023/12/12 20:04:45;;;;;;;34.60;17.83;;;20.80;53.40;;;;;;5094932;28;20245;-60
2023/12/12 20:07:13;;;;;;;32.38;16.35;;;20.80;54.30;;;;;;5094450;28;20289;-57
2023/12/12 20:09:41;;;;;;;31.85;14.25;;;20.80;53.60;;;;;;5091288;28;20715;-55
2023/12/12 20:12:09;;;;;;;38.00;15.18;;;20.80;53.50;;;;;;5094578;28;20626;-60
2023/12/12 20:14:37;;;;;;;34.28;14.63;;;20.70;54.20;;;;;;5090275;28;20260;-60
2023/12/12 20:17:05;;;;;;;32.13;12.32;;;20.70;53.90;;;;;;5093901;28;20241;-58
2023/12/12 20:19:32;;;;;;;34.10;11.82;;;20.70;53.70;;;;;;5094857;28;20643;-56
2023/12/12 20:22:00;;;;;;;29.45;12.32;;;20.60;53.40;;;;;;5095193;28;20194;-55
2023/12/12 20:24:27;;;;;;;30.52;11.75;;;20.60;53.30;;;;;;5093739;28;20305;-58
2023/12/12 20:26:54;;;;;;;25.00;10.77;;;20.50;53.20;;;;;;5095360;28;20194;-57
2023/12/12 20:29:21;;;;;;;20.45;10.05;;;20.40;53.20;;;;;;5095280;28;20220;-57
2023/12/12 20:31:49;;;;;;;18.88;9.23;;;20.30;53.20;;;;;;5094687;28;20301;-57
2023/12/12 20:34:16;;;;;;;19.70;8.45;;;20.30;53.30;;;;;;5094946;28;20218;-59
2023/12/12 20:36:43;;;;;;;20.38;8.20;;;20.20;53.30;;;;;;5095095;28;20196;-60
2023/12/12 20:39:12;;;;;;;15.10;7.90;;;20.10;53.40;;;;;;5094657;28;20304;-57
2023/12/12 20:41:39;;;;;;;17.75;6.95;;;20.10;53.40;;;;;;5095125;28;20194;-58
2023/12/12 20:44:06;;;;;;;20.05;7.00;;;20.00;53.50;;;;;;5095002;28;20221;-58
2023/12/12 20:46:33;;;;;;;13.60;6.95;;;20.00;53.50;;;;;;5093066;28;20198;-59
2023/12/12 20:49:01;;;;;;;16.77;6.85;;;19.90;53.50;;;;;;5094808;28;20269;-55
2023/12/12 20:51:29;;;;;;;15.25;5.85;;;19.90;53.50;;;;;;5094848;28;20300;-58
2023/12/12 20:53:56;;;;;;;16.30;5.97;;;19.90;53.50;;;;;;5094417;28;20182;-59
2023/12/12 20:56:24;;;;;;;11.30;5.38;;;19.80;53.50;;;;;;5093738;28;20674;-56
2023/12/12 20:58:51;;;;;;;12.00;5.30;;;19.80;53.50;;;;;;5094717;28;20190;-58
2023/12/12 21:01:18;;;;;;;13.27;5.43;;;19.80;54.10;;;;;;5094421;28;20273;-55
2023/12/12 21:03:47;;;;;;;12.27;5.45;;;19.70;54.10;;;;;;5094420;28;20187;-58
2023/12/12 21:06:15;;;;;;;11.68;4.60;;;19.70;53.50;;;;;;5094631;28;20229;-56
2023/12/12 21:08:42;;;;;;;9.38;4.18;;;19.70;53.40;;;;;;5093634;28;20236;-58
2023/12/12 21:11:13;;;;;;;14.20;4.90;;;19.60;53.30;;;;;;5094384;28;20233;-58
2023/12/12 21:13:40;;;;;;;12.52;3.90;;;19.60;53.30;;;;;;5094497;28;20186;-58
2023/12/12 21:16:15;;;;;;;8.80;3.95;;;19.60;53.40;;;;;;5094193;28;20305;-58
2023/12/12 21:18:42;;;;;;;10.30;3.60;;;19.50;53.30;;;;;;5093858;28;20655;-57
2023/12/12 21:21:09;;;;;;;9.07;3.80;;;19.50;53.30;;;;;;5094200;28;20244;-58
2023/12/12 21:23:38;;;;;;;9.15;3.42;;;19.50;53.30;;;;;;5092706;28;20226;-58
2023/12/12 21:26:05;;;;;;;12.35;3.97;;;19.50;53.30;;;;;;5094300;28;20301;-58
2023/12/12 21:28:32;;;;;;;9.57;3.53;;;19.40;53.20;;;;;;5094169;28;20190;-57
2023/12/12 21:30:59;;;;;;;8.77;3.50;;;19.40;53.90;;;;;;5074556;28;20229;-58
2023/12/12 21:33:26;;;;;;;7.38;3.20;;;19.40;53.30;;;;;;5093834;28;20182;-58
2023/12/12 21:35:53;;;;;;;9.82;3.78;;;19.40;53.30;;;;;;5093852;28;20705;-59
2023/12/12 21:38:21;;;;;;;7.47;3.10;;;19.40;53.30;;;;;;5092144;28;20276;-59
2023/12/12 21:40:49;;;;;;;6.88;2.83;;;19.30;53.20;;;;;;5093641;28;20608;-59
2023/12/12 21:43:16;;;;;;;10.43;3.25;;;19.30;53.20;;;;;;5093933;28;20182;-57
2023/12/12 21:45:44;;;;;;;9.23;2.70;;;19.30;53.20;;;;;;5093732;28;20225;-59
2023/12/12 21:48:11;;;;;;;6.03;2.33;;;19.30;53.20;;;;;;5093796;28;20182;-59
2023/12/12 21:50:39;;;;;;;5.75;2.47;;;19.30;53.20;;;;;;5093649;28;20248;-58
2023/12/12 21:53:06;;;;;;;7.07;2.55;;;19.20;53.10;;;;;;5093369;28;20239;-56
2023/12/12 21:55:34;;;;;;;7.28;2.50;;;19.30;53.20;;;;;;5093529;28;20275;-59
2023/12/12 21:58:04;;;;;;;5.50;2.65;;;19.20;53.80;;;;;;5093554;28;20186;-57
2023/12/12 22:00:31;;;;;;;7.15;2.28;;;19.20;53.10;;;;;;5093015;28;20706;-58
2023/12/12 22:02:57;;;;;;;7.45;2.30;;;19.20;53.10;;;;;;5093531;28;20196;-58
2023/12/12 22:05:25;;;;;;;8.52;2.33;;;19.20;53.10;;;;;;5093583;28;20297;-59
2023/12/12 22:07:52;;;;;;;5.38;2.60;;;19.20;53.10;;;;;;5093054;28;20221;-59
2023/12/12 22:10:18;;;;;;;5.65;2.88;;;19.20;53.10;;;;;;5092996;28;20317;-58
2023/12/12 22:12:46;;;;;;;7.20;1.88;;;19.10;53.60;;;;;;5093032;28;20674;-58
2023/12/12 22:15:15;;;;;;;5.20;2.08;;;19.10;53.00;;;;;;5092925;28;20213;-59
2023/12/12 22:17:42;;;;;;;6.82;1.90;;;19.10;53.00;;;;;;5092974;28;20590;-57
2023/12/12 22:20:09;;;;;;;6.13;2.13;;;19.10;53.00;;;;;;5093124;28;20220;-58
2023/12/12 22:22:38;;;;;;;7.35;2.40;;;19.10;53.00;;;;;;5092736;28;20347;-58
2023/12/12 22:25:06;;;;;;;7.22;1.92;;;19.10;53.00;;;;;;5093119;28;20214;-58
2023/12/12 22:27:32;;;;;;;4.30;1.90;;;19.10;53.00;;;;;;5093072;28;20190;-57
2023/12/12 22:30:00;;;;;;;4.28;1.98;;;19.00;53.60;;;;;;5092804;28;20217;-59
2023/12/12 22:32:28;;;;;;;7.05;2.10;;;19.00;52.90;;;;;;5092890;28;20297;-58
2023/12/12 22:34:55;;;;;;;3.58;1.80;;;19.00;53.50;;;;;;5093109;28;20220;-59
2023/12/12 22:37:22;;;;;;;4.22;1.67;;;19.00;53.50;;;;;;5092491;28;20289;-58
2023/12/12 22:39:49;;;;;;;4.35;1.52;;;19.00;52.90;;;;;;5092952;28;20221;-58
2023/12/12 22:42:16;;;;;;;4.93;1.70;;;19.00;53.50;;;;;;5092876;28;20182;-58
2023/12/12 22:44:43;;;;;;;4.72;1.38;;;19.00;53.50;;;;;;5092580;28;20228;-59
2023/12/12 22:47:10;;;;;;;5.28;1.60;;;19.00;52.80;;;;;;5092749;28;20289;-57
2023/12/12 22:49:39;;;;;;;5.88;1.70;;;19.00;52.90;;;;;;5092702;28;20217;-57
2023/12/12 22:52:06;;;;;;;6.10;1.52;;;18.90;52.80;;;;;;5092101;28;20218;-57
2023/12/12 22:54:33;;;;;;;5.85;1.83;;;18.90;52.80;;;;;;5092625;28;20301;-58
2023/12/12 22:57:00;;;;;;;5.50;2.10;;;18.90;52.80;;;;;;5092736;28;20276;-57
2023/12/12 22:59:27;;;;;;;4.97;1.55;;;18.90;53.50;;;;;;5092254;28;20224;-58
2023/12/12 23:01:54;;;;;;;4.18;1.55;;;18.90;53.40;;;;;;5092554;28;20185;-55
2023/12/12 23:04:20;;;;;;;3.97;1.42;;;18.90;52.80;;;;;;5092515;28;20196;-58
2023/12/12 23:06:50;;;;;;;5.03;1.42;;;18.90;52.80;;;;;;5092260;28;20193;-56
2023/12/12 23:09:21;;;;;;;3.75;1.38;;;18.90;52.80;;;;;;5092100;28;20218;-58
2023/12/12 23:11:48;;;;;;;2.80;1.48;;;18.90;52.80;;;;;;5092144;28;20683;-57
2023/12/12 23:14:15;;;;;;;8.07;1.60;;;18.80;53.40;;;;;;5092084;28;20218;-57
2023/12/12 23:16:42;;;;;;;5.13;1.35;;;18.90;53.40;;;;;;5092157;28;20210;-58
2023/12/12 23:19:09;;;;;;;5.22;1.60;;;18.80;53.00;;;;;;5092342;28;20269;-59
2023/12/12 23:21:37;;;;;;;7.63;1.55;;;18.80;52.80;;;;;;5092085;28;20247;-58
2023/12/12 23:24:06;;;;;;;4.82;1.42;;;18.80;52.80;;;;;;5092388;28;20196;-57
2023/12/12 23:26:34;;;;;;;4.43;1.88;;;18.80;52.80;;;;;;5092033;28;20190;-58
2023/12/12 23:29:00;;;;;;;4.05;1.63;;;18.80;52.80;;;;;;5091607;28;20535;-58
2023/12/12 23:31:27;;;;;;;5.28;1.50;;;18.80;53.40;;;;;;5094920;28;20236;-58
2023/12/12 23:33:54;;;;;;;4.30;1.67;;;18.80;52.80;;;;;;5096389;28;20194;-57
2023/12/12 23:36:21;;;;;;;5.20;1.83;;;18.80;52.80;;;;;;5096086;28;20222;-58
2023/12/12 23:38:48;;;;;;;5.22;1.42;;;18.80;53.50;;;;;;5096313;28;20194;-59
2023/12/12 23:41:17;;;;;;;3.67;1.48;;;18.80;52.80;;;;;;5096337;28;20217;-56
2023/12/12 23:43:44;;;;;;;6.93;1.50;;;18.80;52.80;;;;;;5095598;28;20225;-59
2023/12/12 23:46:11;;;;;;;6.78;1.83;;;18.70;52.80;;;;;;5096161;28;20702;-58
2023/12/12 23:48:38;;;;;;;8.43;1.88;;;18.70;52.80;;;;;;5096090;28;20190;-59
2023/12/12 23:51:06;;;;;;;8.38;1.70;;;18.70;52.80;;;;;;5095826;28;20229;-58
2023/12/12 23:53:33;;;;;;;5.90;1.80;;;18.70;52.80;;;;;;5095972;28;20190;-59
2023/12/12 23:56:00;;;;;;;5.32;1.60;;;18.70;53.50;;;;;;5096157;28;20221;-58
2023/12/12 23:58:29;;;;;;;3.47;1.42;;;18.70;52.80;;;;;;5095148;28;20281;-56
